Aviation Digital Data Service (ADDS)

Output produced by TAFs form (0818 UTC 29 January 2015)
found at http://aviationweather.gov/adds/tafs/
 
KTCC 290642Z 2907/3006 04010KT P6SM BKN250 
     FM291700 05012G19KT P6SM SCT070 BKN150 
     FM292200 07008KT P6SM SCT050 BKN110